Time;durP1;ratioP1;P1;durP2;ratioP2;P2;SDS_P1;SDS_P2;PMS_P1;PMS_P2;Temp;Humidity;BMP_temperature;BMP_pressure;BME280_temperature;BME280_humidity;BME280_pressure;Samples;Min_cycle;Max_cycle;Signal;HPM_P1;HPM_P2
2023/06/30 04:01:45;;;;;;;15.00;10.05;;;20.80;99.90;;;;;;5422051;23;20045;-70
2023/06/30 04:04:10;;;;;;;11.52;9.55;;;20.70;99.90;;;;;;5035316;28;20422;-70
2023/06/30 04:06:36;;;;;;;15.88;9.73;;;20.70;99.90;;;;;;5037516;28;20436;-70
2023/06/30 04:09:02;;;;;;;13.25;10.60;;;20.70;99.90;;;;;;5037857;28;20059;-69
2023/06/30 04:11:28;;;;;;;13.32;9.88;;;20.70;99.90;;;;;;5023873;28;20049;-70
2023/06/30 04:16:20;;;;;;;16.05;11.20;;;20.70;99.90;;;;;;5003480;23;20070;-66
2023/06/30 04:18:46;;;;;;;15.10;10.95;;;20.60;99.90;;;;;;4978013;28;20035;-67
2023/06/30 04:21:11;;;;;;;14.10;10.77;;;20.40;99.90;;;;;;4978232;28;20522;-67
2023/06/30 04:23:37;;;;;;;13.95;10.75;;;20.30;99.90;;;;;;4977739;28;20027;-67
2023/06/30 04:26:04;;;;;;;13.63;10.80;;;20.20;99.90;;;;;;4960422;28;20371;-67
2023/06/30 04:28:30;;;;;;;12.65;11.13;;;20.10;99.90;;;;;;4977433;28;20050;-67
2023/06/30 04:30:56;;;;;;;14.07;11.05;;;20.10;99.90;;;;;;4959873;28;20471;-67
2023/06/30 04:33:21;;;;;;;15.63;10.30;;;20.10;99.90;;;;;;4967285;28;20038;-67
2023/06/30 04:35:47;;;;;;;17.42;10.85;;;20.00;99.90;;;;;;4978969;28;20029;-67
2023/06/30 04:38:12;;;;;;;12.48;9.65;;;20.20;99.90;;;;;;4988728;28;20038;-66
2023/06/30 04:40:38;;;;;;;13.50;11.00;;;20.50;99.90;;;;;;4986766;28;20510;-67
2023/06/30 04:43:11;;;;;;;16.05;11.40;;;20.70;99.90;;;;;;4997400;28;20023;-67
2023/06/30 04:45:36;;;;;;;16.85;11.57;;;20.50;99.90;;;;;;4996915;28;20023;-67
2023/06/30 04:48:02;;;;;;;13.93;11.32;;;20.40;99.90;;;;;;4996156;28;20501;-67
2023/06/30 04:50:27;;;;;;;18.30;10.88;;;20.30;99.90;;;;;;4979229;28;20084;-67
2023/06/30 04:52:53;;;;;;;14.68;10.77;;;20.50;99.90;;;;;;4997250;28;20026;-67
2023/06/30 04:55:19;;;;;;;15.45;10.95;;;20.30;99.90;;;;;;4980033;28;20042;-67
2023/06/30 04:57:44;;;;;;;16.45;10.77;;;20.40;99.90;;;;;;4997310;28;20503;-67
2023/06/30 05:00:10;;;;;;;15.88;11.27;;;20.40;99.90;;;;;;4979735;28;20073;-67
2023/06/30 05:02:36;;;;;;;;;;;20.40;99.90;;;;;;4980501;28;20080;-67
2023/06/30 05:05:01;;;;;;;13.48;10.48;;;20.40;99.90;;;;;;4979118;28;19909;-67
2023/06/30 05:07:27;;;;;;;11.95;10.52;;;20.50;99.90;;;;;;4996214;28;20031;-67
2023/06/30 05:09:53;;;;;;;13.80;10.63;;;20.60;99.90;;;;;;4996232;28;20498;-67
2023/06/30 05:12:18;;;;;;;11.85;10.05;;;20.80;99.90;;;;;;4978371;28;20034;-67
2023/06/30 05:14:44;;;;;;;13.80;11.02;;;21.00;99.90;;;;;;4995137;28;20081;-67
2023/06/30 05:17:09;;;;;;;15.55;10.30;;;21.10;99.90;;;;;;4983473;28;20035;-67
2023/06/30 05:19:35;;;;;;;14.73;11.02;;;21.10;99.90;;;;;;4995959;28;20468;-66
2023/06/30 05:22:02;;;;;;;16.83;11.27;;;21.20;99.90;;;;;;4994319;28;20069;-66
2023/06/30 05:24:28;;;;;;;15.30;12.18;;;21.30;99.90;;;;;;4962679;28;20121;-66
2023/06/30 05:26:55;;;;;;;16.42;11.38;;;21.20;99.90;;;;;;4987575;28;20098;-68
2023/06/30 05:29:20;;;;;;;13.82;11.40;;;21.10;99.90;;;;;;4974860;28;20059;-67
2023/06/30 05:31:46;;;;;;;15.38;11.68;;;21.10;99.90;;;;;;4973300;28;20029;-68
2023/06/30 05:34:15;;;;;;;15.52;11.15;;;21.10;99.90;;;;;;4976596;28;20106;-67
2023/06/30 05:36:43;;;;;;;15.50;11.57;;;21.20;99.90;;;;;;4979133;28;20140;-67
2023/06/30 05:39:10;;;;;;;15.55;12.32;;;21.30;99.90;;;;;;4988732;28;20027;-67
2023/06/30 05:41:35;;;;;;;;;;;21.40;99.90;;;;;;4987832;28;20109;-66
2023/06/30 05:44:01;;;;;;;15.50;11.23;;;21.50;99.90;;;;;;4979595;28;19945;-66
2023/06/30 05:46:26;;;;;;;16.95;10.90;;;21.60;99.90;;;;;;4979964;28;20034;-66
2023/06/30 05:48:52;;;;;;;19.30;11.65;;;21.70;99.90;;;;;;4984612;28;20042;-66
2023/06/30 05:51:17;;;;;;;14.77;11.27;;;21.80;99.90;;;;;;4984502;28;20030;-64
2023/06/30 05:53:43;;;;;;;14.82;11.20;;;21.90;99.90;;;;;;4989653;28;20038;-66
2023/06/30 05:56:08;;;;;;;18.00;11.50;;;21.90;99.90;;;;;;4981240;28;20467;-67
2023/06/30 05:58:37;;;;;;;16.98;10.40;;;22.00;99.90;;;;;;4983341;28;20062;-65
2023/06/30 06:01:03;;;;;;;19.05;10.68;;;22.00;99.90;;;;;;4986298;28;20383;-66
2023/06/30 06:03:30;;;;;;;14.50;10.68;;;22.10;99.90;;;;;;4992495;28;20030;-67
2023/06/30 06:05:56;;;;;;;15.93;11.30;;;22.10;99.90;;;;;;4976551;28;20033;-66
2023/06/30 06:08:22;;;;;;;18.75;11.23;;;22.20;99.90;;;;;;4976947;28;20022;-68
2023/06/30 06:10:48;;;;;;;;;;;22.20;99.90;;;;;;4994808;28;20026;-67
2023/06/30 06:13:33;;;;;;;16.13;10.80;;;22.20;99.90;;;;;;4988636;28;19981;-66
2023/06/30 06:15:59;;;;;;;19.45;12.15;;;22.30;99.90;;;;;;4988241;28;20041;-67
2023/06/30 06:18:25;;;;;;;14.95;9.95;;;22.40;99.90;;;;;;4980069;28;20489;-67
2023/06/30 06:20:50;;;;;;;12.40;9.82;;;22.40;99.90;;;;;;4984374;28;20022;-66
2023/06/30 06:23:16;;;;;;;15.05;10.25;;;22.50;99.90;;;;;;4987888;28;20025;-66
2023/06/30 06:25:41;;;;;;;13.60;10.25;;;22.50;99.90;;;;;;4974088;28;20026;-67
2023/06/30 06:28:07;;;;;;;;;;;22.60;99.90;;;;;;4969834;28;20042;-66
2023/06/30 06:30:32;;;;;;;18.40;9.75;;;22.60;99.90;;;;;;4985410;28;19910;-67
2023/06/30 06:32:58;;;;;;;;;;;22.70;99.90;;;;;;4986021;28;20031;-67
2023/06/30 06:35:23;;;;;;;12.63;9.07;;;22.70;99.90;;;;;;4964130;28;20259;-66
2023/06/30 06:37:49;;;;;;;12.93;8.52;;;22.70;99.90;;;;;;4994146;28;20372;-67
2023/06/30 06:40:14;;;;;;;;;;;22.60;99.90;;;;;;4994971;28;20030;-66
2023/06/30 06:42:40;;;;;;;10.90;8.05;;;22.40;99.90;;;;;;4976968;28;20004;-66
2023/06/30 06:45:06;;;;;;;11.93;8.48;;;22.30;99.90;;;;;;4978020;28;20026;-67
2023/06/30 06:47:50;;;;;;;;;;;22.20;99.90;;;;;;4978359;28;20037;-67
2023/06/30 06:50:16;;;;;;;11.38;8.05;;;22.20;99.90;;;;;;4994555;28;20306;-66
2023/06/30 06:52:41;;;;;;;13.98;8.43;;;22.10;99.90;;;;;;4994088;28;20034;-67
2023/06/30 06:55:07;;;;;;;9.70;7.50;;;22.10;99.90;;;;;;4992776;28;20045;-66
2023/06/30 06:57:32;;;;;;;12.52;8.40;;;22.00;99.90;;;;;;4994182;28;20027;-67
2023/06/30 06:59:59;;;;;;;;;;;21.90;99.90;;;;;;4994709;28;20058;-66
2023/06/30 07:02:24;;;;;;;10.15;8.02;;;21.90;99.90;;;;;;4976129;28;19988;-65
2023/06/30 07:04:50;;;;;;;10.02;7.38;;;22.00;99.90;;;;;;4976377;28;20169;-66
2023/06/30 07:07:15;;;;;;;;;;;22.10;99.90;;;;;;4994399;28;20034;-66
2023/06/30 07:09:41;;;;;;;12.93;7.68;;;22.20;99.90;;;;;;4973686;28;20425;-67
2023/06/30 07:12:07;;;;;;;19.02;8.52;;;22.40;99.90;;;;;;4992601;28;20549;-66
2023/06/30 07:14:32;;;;;;;13.90;7.78;;;22.50;99.90;;;;;;4994926;28;20043;-66
2023/06/30 07:16:58;;;;;;;;;;;22.60;99.90;;;;;;4988127;28;20026;-66
2023/06/30 07:19:23;;;;;;;14.85;7.45;;;22.70;99.90;;;;;;4992069;28;19910;-66
2023/06/30 07:21:48;;;;;;;;;;;22.70;99.90;;;;;;4991098;28;20125;-66
2023/06/30 07:24:14;;;;;;;9.77;7.70;;;22.70;99.90;;;;;;4988727;28;19929;-65
2023/06/30 07:26:39;;;;;;;10.32;8.25;;;22.70;99.90;;;;;;4973571;28;20105;-66
2023/06/30 07:29:05;;;;;;;10.10;8.07;;;22.70;99.90;;;;;;4992750;28;20034;-66
2023/06/30 07:31:31;;;;;;;;;;;22.80;99.90;;;;;;4993855;28;20027;-66
2023/06/30 07:33:57;;;;;;;12.90;10.13;;;22.70;99.90;;;;;;4991896;28;19910;-65
2023/06/30 07:36:22;;;;;;;15.00;10.75;;;22.60;99.90;;;;;;4983060;28;20030;-65
2023/06/30 07:38:48;;;;;;;16.00;11.07;;;22.50;99.90;;;;;;4989476;28;20030;-66
2023/06/30 07:41:14;;;;;;;;;;;22.40;99.90;;;;;;4995505;28;20026;-66
2023/06/30 07:43:39;;;;;;;15.27;11.25;;;22.30;99.90;;;;;;4975725;28;19909;-66
2023/06/30 07:46:04;;;;;;;;;;;22.30;99.90;;;;;;4991191;28;20502;-67
2023/06/30 07:48:30;;;;;;;14.60;10.32;;;22.30;99.90;;;;;;4992005;28;19906;-66
2023/06/30 07:50:56;;;;;;;13.90;10.70;;;22.40;99.90;;;;;;4986530;28;20140;-66
2023/06/30 07:53:21;;;;;;;14.98;11.10;;;22.50;99.90;;;;;;4991700;28;20106;-67
2023/06/30 07:55:47;;;;;;;15.15;10.20;;;22.60;99.90;;;;;;4963691;28;20026;-66
2023/06/30 07:58:12;;;;;;;20.52;11.85;;;22.70;99.90;;;;;;4996177;28;20529;-66
2023/06/30 08:00:37;;;;;;;;;;;22.70;99.90;;;;;;4966492;28;20042;-66
2023/06/30 08:03:03;;;;;;;15.80;11.13;;;22.60;99.90;;;;;;4989307;28;19960;-66
2023/06/30 08:05:28;;;;;;;16.88;12.02;;;22.70;99.90;;;;;;4995022;28;20034;-66
2023/06/30 08:07:54;;;;;;;;;;;22.70;99.90;;;;;;4989478;28;20109;-65
2023/06/30 08:10:20;;;;;;;19.27;14.20;;;22.80;99.90;;;;;;4989300;28;19920;-65
2023/06/30 08:12:46;;;;;;;22.17;15.85;;;22.80;99.90;;;;;;4989901;28;20035;-65
2023/06/30 08:15:11;;;;;;;;;;;22.80;99.90;;;;;;4993586;28;20035;-64
2023/06/30 08:17:37;;;;;;;26.25;16.02;;;22.80;99.90;;;;;;4985615;28;19917;-64
2023/06/30 08:20:02;;;;;;;;;;;22.70;99.90;;;;;;4964470;28;20062;-64
2023/06/30 08:22:28;;;;;;;23.88;16.38;;;22.70;99.90;;;;;;4988064;28;20382;-65
2023/06/30 08:24:53;;;;;;;;;;;22.80;99.90;;;;;;4968389;28;20110;-64
2023/06/30 08:27:19;;;;;;;25.83;17.02;;;22.70;99.90;;;;;;4982524;28;20321;-64
2023/06/30 08:29:44;;;;;;;30.55;19.95;;;22.70;99.90;;;;;;4987153;28;20030;-64
2023/06/30 08:32:11;;;;;;;;;;;22.60;99.90;;;;;;4976896;28;20036;-65
2023/06/30 08:34:37;;;;;;;26.95;18.70;;;22.40;99.90;;;;;;4985708;28;19929;-65
2023/06/30 08:37:02;;;;;;;26.48;18.42;;;22.50;99.90;;;;;;4980740;28;20035;-65
2023/06/30 08:39:28;;;;;;;30.98;21.13;;;22.50;99.90;;;;;;4986935;28;20045;-65
2023/06/30 08:41:54;;;;;;;;;;;22.50;99.90;;;;;;4972759;28;20026;-64
2023/06/30 08:44:26;;;;;;;26.13;20.05;;;22.50;99.90;;;;;;4982007;28;19925;-64
2023/06/30 08:46:56;;;;;;;32.15;20.88;;;22.50;99.90;;;;;;4977058;28;20081;-64
2023/06/30 08:49:23;;;;;;;29.42;20.25;;;22.40;99.90;;;;;;4996787;28;20026;-64
2023/06/30 08:51:53;;;;;;;29.92;20.83;;;22.40;99.90;;;;;;4996514;28;20026;-64
2023/06/30 08:54:19;;;;;;;32.22;20.95;;;22.60;99.90;;;;;;4995890;28;20018;-65
2023/06/30 08:56:45;;;;;;;30.00;21.30;;;22.70;99.90;;;;;;4996131;28;20030;-64
2023/06/30 08:59:10;;;;;;;30.63;20.65;;;22.60;99.90;;;;;;4995758;28;20053;-64
2023/06/30 09:01:37;;;;;;;31.67;21.60;;;22.70;99.90;;;;;;4995427;28;20030;-65
2023/06/30 09:04:05;;;;;;;29.80;20.35;;;22.90;99.90;;;;;;4995723;28;20022;-65
2023/06/30 09:06:35;;;;;;;30.70;20.88;;;23.00;99.90;;;;;;4995285;28;20027;-64
2023/06/30 09:09:11;;;;;;;29.25;21.15;;;22.90;99.90;;;;;;4995974;28;20022;-64
2023/06/30 09:11:38;;;;;;;32.37;21.13;;;22.90;99.90;;;;;;4995646;28;20030;-64
2023/06/30 09:14:06;;;;;;;29.83;21.88;;;22.80;99.90;;;;;;4995267;28;20261;-65
2023/06/30 09:16:32;;;;;;;31.90;22.52;;;22.80;99.90;;;;;;4995555;28;20040;-70
2023/06/30 09:18:58;;;;;;;29.15;20.75;;;22.80;99.90;;;;;;4978099;28;20039;-70
2023/06/30 09:21:23;;;;;;;30.77;21.38;;;22.80;99.90;;;;;;4966168;28;20400;-69
2023/06/30 09:23:51;;;;;;;28.70;20.30;;;22.70;99.90;;;;;;4983481;28;20034;-69
2023/06/30 09:26:17;;;;;;;32.30;22.05;;;22.50;99.90;;;;;;4995704;28;20054;-70
2023/06/30 09:28:44;;;;;;;33.20;22.08;;;22.50;99.90;;;;;;4975225;28;20034;-71
2023/06/30 09:31:11;;;;;;;31.15;22.17;;;22.60;99.90;;;;;;4991847;28;20046;-72
2023/06/30 09:33:39;;;;;;;29.92;21.63;;;22.60;99.90;;;;;;4992161;28;20125;-72
2023/06/30 09:36:05;;;;;;;36.53;22.63;;;22.60;99.90;;;;;;4991156;28;20054;-72
2023/06/30 09:38:30;;;;;;;;;;;22.70;99.90;;;;;;4995006;28;20431;-71
2023/06/30 09:40:56;;;;;;;30.42;21.90;;;22.80;99.90;;;;;;4962766;28;19957;-71
2023/06/30 09:43:23;;;;;;;30.40;21.17;;;22.90;99.90;;;;;;4990750;28;20011;-72
2023/06/30 09:45:57;;;;;;;29.17;21.52;;;23.00;99.90;;;;;;4991949;28;20116;-72
2023/06/30 09:48:39;;;;;;;31.55;21.95;;;23.20;99.90;;;;;;4987360;28;20062;-71
2023/06/30 09:51:09;;;;;;;30.42;21.75;;;23.10;99.90;;;;;;4992247;28;20025;-71
2023/06/30 09:53:36;;;;;;;32.10;21.23;;;23.30;99.90;;;;;;4989675;28;20094;-71
2023/06/30 09:56:02;;;;;;;30.27;22.02;;;23.10;99.90;;;;;;4989743;28;20032;-72
2023/06/30 09:58:27;;;;;;;28.27;20.65;;;22.90;99.90;;;;;;4992867;28;20109;-70
2023/06/30 10:00:53;;;;;;;;;;;22.90;99.90;;;;;;4974207;28;20395;-72
2023/06/30 10:03:19;;;;;;;33.88;21.63;;;23.00;99.90;;;;;;4986764;28;20333;-73
2023/06/30 10:05:47;;;;;;;31.65;21.15;;;23.20;99.90;;;;;;4970912;28;20041;-70
2023/06/30 10:08:14;;;;;;;27.35;20.52;;;23.40;99.90;;;;;;4984898;28;20033;-70
2023/06/30 10:10:42;;;;;;;32.10;20.90;;;23.30;99.90;;;;;;4970661;28;20033;-72
2023/06/30 10:13:12;;;;;;;30.38;20.92;;;23.20;99.90;;;;;;4968206;28;20037;-72
2023/06/30 10:15:39;;;;;;;30.42;21.80;;;23.10;99.90;;;;;;5005132;23;20505;-69
2023/06/30 10:18:05;;;;;;;;;;;23.20;99.90;;;;;;5013828;28;20033;-69
2023/06/30 10:20:30;;;;;;;29.15;19.52;;;23.40;99.90;;;;;;5019037;28;20413;-70
2023/06/30 10:22:56;;;;;;;;;;;24.30;99.90;;;;;;5022397;28;20111;-68
2023/06/30 10:25:25;;;;;;;26.95;19.42;;;24.90;99.90;;;;;;5005857;28;19905;-69
2023/06/30 10:27:51;;;;;;;26.60;20.05;;;25.00;99.90;;;;;;4988287;28;20036;-68
2023/06/30 10:30:17;;;;;;;30.30;20.48;;;25.40;99.90;;;;;;4998446;28;20390;-68
2023/06/30 10:32:42;;;;;;;;;;;25.70;99.90;;;;;;5007052;28;20030;-70
2023/06/30 10:35:10;;;;;;;25.20;19.05;;;25.70;99.90;;;;;;4993428;28;20334;-70
2023/06/30 10:37:36;;;;;;;26.20;18.70;;;25.60;99.90;;;;;;5002972;28;20121;-70
2023/06/30 10:40:06;;;;;;;26.50;19.27;;;25.70;99.90;;;;;;5007708;28;20466;-69
2023/06/30 10:42:41;;;;;;;31.63;19.70;;;25.70;99.90;;;;;;4987351;28;20041;-69
2023/06/30 10:45:07;;;;;;;27.08;19.55;;;25.60;99.90;;;;;;5002263;28;20034;-70
2023/06/30 10:47:39;;;;;;;27.05;19.33;;;25.50;99.90;;;;;;5003476;28;20021;-69
2023/06/30 10:50:14;;;;;;;28.38;18.38;;;25.40;99.90;;;;;;5000454;28;20045;-68
2023/06/30 10:52:54;;;;;;;25.73;18.00;;;25.20;99.90;;;;;;5005927;28;20057;-69
2023/06/30 10:55:26;;;;;;;28.05;19.38;;;25.20;99.90;;;;;;5011704;28;20101;-68
2023/06/30 10:57:53;;;;;;;24.75;18.00;;;25.50;99.90;;;;;;5012433;28;20084;-69
2023/06/30 11:00:21;;;;;;;26.17;18.58;;;25.70;99.90;;;;;;5009724;28;20025;-71
2023/06/30 11:02:58;;;;;;;27.38;18.70;;;26.00;99.90;;;;;;5004830;28;20394;-69
2023/06/30 11:05:25;;;;;;;26.55;19.33;;;26.20;99.90;;;;;;5013566;28;20442;-69
2023/06/30 11:08:09;;;;;;;24.55;17.75;;;26.30;99.90;;;;;;5009462;28;20034;-69
2023/06/30 11:10:44;;;;;;;26.63;17.48;;;26.70;99.90;;;;;;5013262;28;20022;-69
2023/06/30 11:13:10;;;;;;;26.55;18.63;;;26.40;99.90;;;;;;4997151;28;20057;-70
2023/06/30 11:15:38;;;;;;;25.55;17.85;;;26.30;99.90;;;;;;5016360;28;20053;-69
2023/06/30 11:18:25;;;;;;;26.60;18.50;;;26.30;99.90;;;;;;5016810;28;20033;-69
2023/06/30 11:21:16;;;;;;;28.17;18.73;;;26.00;99.90;;;;;;5014934;28;20037;-69
2023/06/30 11:23:43;;;;;;;28.40;19.67;;;26.50;99.90;;;;;;5012571;28;20025;-69
2023/06/30 11:26:14;;;;;;;27.48;19.70;;;26.50;99.90;;;;;;4999597;28;20029;-69
2023/06/30 11:28:41;;;;;;;27.05;19.38;;;26.10;99.90;;;;;;5016974;28;20030;-68
2023/06/30 11:31:06;;;;;;;27.70;20.02;;;25.80;99.90;;;;;;5010033;28;20524;-69
2023/06/30 11:33:33;;;;;;;;;;;25.40;99.90;;;;;;4999900;28;20034;-69
2023/06/30 11:35:59;;;;;;;28.15;19.98;;;25.40;99.90;;;;;;5004072;28;19956;-69
2023/06/30 11:38:25;;;;;;;17.42;12.65;;;25.20;99.90;;;;;;5002837;28;20376;-70
2023/06/30 11:40:51;;;;;;;16.52;11.23;;;24.70;99.90;;;;;;5016700;28;20034;-69
2023/06/30 11:43:17;;;;;;;;;;;24.60;99.90;;;;;;4998949;28;20552;-70
2023/06/30 11:45:53;;;;;;;16.02;11.63;;;24.00;99.90;;;;;;5016404;28;19917;-70
2023/06/30 11:48:19;;;;;;;15.20;10.05;;;23.90;99.90;;;;;;5013740;28;20116;-69
2023/06/30 11:50:44;;;;;;;;;;;23.70;99.90;;;;;;4995678;28;20065;-69
2023/06/30 11:53:10;;;;;;;13.98;10.52;;;23.40;99.90;;;;;;5007014;28;19912;-71
2023/06/30 11:55:35;;;;;;;;;;;23.10;99.90;;;;;;4994159;28;20088;-69
2023/06/30 11:58:02;;;;;;;15.55;10.63;;;23.00;99.90;;;;;;5008973;28;19913;-69
2023/06/30 12:00:27;;;;;;;;;;;22.70;99.90;;;;;;4990950;28;20411;-68
2023/06/30 12:02:53;;;;;;;15.70;11.07;;;22.40;99.90;;;;;;4999410;28;19912;-70
2023/06/30 12:05:23;;;;;;;15.55;11.38;;;22.20;99.90;;;;;;4998125;28;20137;-68
2023/06/30 12:07:50;;;;;;;19.20;12.23;;;21.80;99.90;;;;;;4997349;28;20390;-68
2023/06/30 12:10:16;;;;;;;28.92;16.52;;;21.60;99.90;;;;;;5015666;28;20029;-68
2023/06/30 12:12:42;;;;;;;28.60;16.00;;;21.30;99.90;;;;;;5009266;28;20033;-67
2023/06/30 12:15:10;;;;;;;29.55;18.58;;;20.90;99.90;;;;;;5015703;28;20042;-68
2023/06/30 12:17:39;;;;;;;35.72;19.25;;;20.50;99.90;;;;;;4995882;28;20018;-67
2023/06/30 12:20:06;;;;;;;35.70;21.38;;;20.10;99.90;;;;;;4995923;28;20496;-66
2023/06/30 12:22:36;;;;;;;27.77;18.38;;;19.90;99.90;;;;;;5009461;28;20037;-66
2023/06/30 12:25:03;;;;;;;31.38;20.23;;;19.60;99.90;;;;;;5012969;28;20493;-67
2023/06/30 12:27:31;;;;;;;27.10;18.75;;;19.40;99.90;;;;;;5015877;28;20024;-67
2023/06/30 12:29:57;;;;;;;31.63;19.67;;;19.10;99.90;;;;;;5015344;28;20508;-68
2023/06/30 12:32:27;;;;;;;36.45;21.50;;;19.10;99.90;;;;;;5007422;28;20113;-67
2023/06/30 12:35:04;;;;;;;30.10;19.42;;;18.90;99.90;;;;;;5015498;28;20029;-67
2023/06/30 12:37:30;;;;;;;29.23;19.65;;;18.70;99.90;;;;;;4978377;28;20026;-66
2023/06/30 12:39:58;;;;;;;34.28;21.15;;;18.60;99.90;;;;;;5001837;28;20449;-69
2023/06/30 12:42:28;;;;;;;32.75;21.42;;;18.60;99.90;;;;;;4997487;28;20025;-66
2023/06/30 12:44:54;;;;;;;32.72;20.58;;;18.60;99.90;;;;;;4997531;28;20498;-67
2023/06/30 12:47:19;;;;;;;39.97;23.05;;;18.60;99.90;;;;;;4997635;28;20026;-67
2023/06/30 12:49:45;;;;;;;33.67;20.98;;;18.60;99.90;;;;;;5011543;28;20038;-67
2023/06/30 12:52:10;;;;;;;36.38;21.55;;;18.60;99.90;;;;;;4996516;28;20030;-67
2023/06/30 12:54:36;;;;;;;34.15;19.50;;;18.60;99.90;;;;;;4996464;28;20038;-66
2023/06/30 12:57:02;;;;;;;34.85;21.80;;;18.70;99.90;;;;;;4996079;28;20058;-67
2023/06/30 12:59:27;;;;;;;33.00;19.42;;;18.80;99.90;;;;;;4978258;28;20109;-67
2023/06/30 13:01:53;;;;;;;27.55;17.50;;;18.90;99.90;;;;;;5011651;28;20029;-67
2023/06/30 13:04:18;;;;;;;26.73;18.60;;;18.90;99.90;;;;;;5015124;28;20029;-68
2023/06/30 13:06:44;;;;;;;24.92;17.02;;;18.80;99.90;;;;;;4995246;28;20032;-67
2023/06/30 13:09:10;;;;;;;28.00;18.13;;;18.80;99.90;;;;;;5014398;28;20065;-67
2023/06/30 13:11:35;;;;;;;24.60;17.48;;;18.80;99.90;;;;;;4996410;28;20038;-67
2023/06/30 13:14:02;;;;;;;29.20;18.38;;;18.90;99.90;;;;;;5007783;28;20033;-67
2023/06/30 13:16:28;;;;;;;28.20;18.73;;;19.00;99.90;;;;;;5009596;28;20066;-67
2023/06/30 13:18:53;;;;;;;24.35;16.33;;;19.10;99.90;;;;;;5014229;28;20069;-66
2023/06/30 13:21:21;;;;;;;24.30;17.17;;;19.20;99.90;;;;;;5011247;28;20030;-66
2023/06/30 13:23:46;;;;;;;25.33;17.23;;;19.40;99.90;;;;;;5007012;28;20030;-68
2023/06/30 13:26:12;;;;;;;20.08;15.25;;;19.70;99.90;;;;;;5013521;28;20430;-67
2023/06/30 13:28:38;;;;;;;20.60;15.30;;;19.90;99.90;;;;;;5017120;28;20062;-68
2023/06/30 13:31:06;;;;;;;21.85;14.18;;;20.10;99.90;;;;;;5016196;28;20026;-68
2023/06/30 13:33:33;;;;;;;19.02;14.85;;;20.40;99.90;;;;;;5010934;28;20064;-67
2023/06/30 13:35:59;;;;;;;20.38;14.40;;;20.60;99.90;;;;;;5008882;28;20022;-67
2023/06/30 13:38:24;;;;;;;;;;;20.50;99.90;;;;;;5008471;28;20030;-65
2023/06/30 13:40:50;;;;;;;23.45;13.90;;;20.60;99.90;;;;;;5014463;28;19905;-65
2023/06/30 13:43:17;;;;;;;20.17;13.27;;;20.80;99.90;;;;;;5015189;28;20026;-69
2023/06/30 13:45:42;;;;;;;17.50;13.23;;;20.90;99.90;;;;;;4992700;28;20553;-67
2023/06/30 13:48:08;;;;;;;21.73;13.68;;;20.90;99.90;;;;;;5011161;28;20041;-67
2023/06/30 13:50:33;;;;;;;19.77;13.40;;;20.90;99.90;;;;;;4996528;28;20038;-71
2023/06/30 13:52:59;;;;;;;18.08;13.85;;;21.10;99.90;;;;;;5013311;28;20022;-70
2023/06/30 13:55:24;;;;;;;15.73;11.23;;;21.30;99.90;;;;;;5011609;28;20038;-69
2023/06/30 13:57:51;;;;;;;19.30;13.20;;;21.60;99.90;;;;;;4996755;28;20026;-71
2023/06/30 14:00:17;;;;;;;16.73;12.60;;;21.80;99.90;;;;;;4978698;28;20438;-71
2023/06/30 14:02:43;;;;;;;17.40;12.65;;;22.10;99.90;;;;;;4994789;28;20037;-73
2023/06/30 14:05:09;;;;;;;18.40;13.20;;;22.00;99.90;;;;;;5015036;28;20490;-68
2023/06/30 14:07:34;;;;;;;18.23;13.05;;;22.10;99.90;;;;;;5013782;28;20048;-69
2023/06/30 14:10:00;;;;;;;18.77;14.20;;;22.20;99.90;;;;;;5014064;28;20030;-69
2023/06/30 14:12:25;;;;;;;;;;;22.20;99.90;;;;;;5001062;28;20022;-70
2023/06/30 14:14:51;;;;;;;20.40;13.35;;;22.10;99.90;;;;;;4999285;28;19925;-71
2023/06/30 14:17:16;;;;;;;18.13;13.00;;;22.00;99.90;;;;;;5013301;28;20036;-69
2023/06/30 14:19:42;;;;;;;19.30;12.85;;;22.00;99.90;;;;;;5013264;28;20052;-68
2023/06/30 14:22:07;;;;;;;23.95;13.77;;;22.10;99.90;;;;;;4995983;28;20049;-69
2023/06/30 14:24:33;;;;;;;;;;;22.40;99.90;;;;;;4995372;28;20041;-69
2023/06/30 14:26:58;;;;;;;20.33;13.65;;;22.60;99.90;;;;;;4994334;28;19906;-69
2023/06/30 14:29:24;;;;;;;18.90;12.82;;;22.80;99.90;;;;;;5012558;28;20551;-69
2023/06/30 14:31:50;;;;;;;;;;;22.90;99.90;;;;;;4996130;28;20120;-69
2023/06/30 14:34:16;;;;;;;15.95;13.07;;;22.90;99.90;;;;;;4995390;28;19910;-71
2023/06/30 14:36:41;;;;;;;;;;;23.20;99.90;;;;;;5010039;28;20479;-69
2023/06/30 14:39:09;;;;;;;18.15;12.38;;;23.30;99.90;;;;;;5009464;28;19960;-70
2023/06/30 14:41:34;;;;;;;18.88;13.05;;;23.40;99.90;;;;;;5009730;28;20053;-70
2023/06/30 14:44:00;;;;;;;;;;;23.40;99.90;;;;;;5010464;28;20069;-70
2023/06/30 14:46:26;;;;;;;18.25;13.68;;;23.30;99.90;;;;;;5009717;28;19921;-70
2023/06/30 14:48:51;;;;;;;;;;;23.10;99.90;;;;;;4995941;28;20137;-70
2023/06/30 14:51:17;;;;;;;21.30;14.60;;;23.10;99.90;;;;;;4998098;28;19905;-71
2023/06/30 14:53:43;;;;;;;;;;;23.00;99.90;;;;;;5018186;28;20040;-70
2023/06/30 14:56:08;;;;;;;20.45;15.32;;;23.00;99.90;;;;;;4999430;28;20516;-70
2023/06/30 14:58:34;;;;;;;18.88;14.38;;;22.90;99.90;;;;;;5016102;28;20382;-70
2023/06/30 15:00:59;;;;;;;22.23;15.85;;;22.80;99.90;;;;;;4998785;28;20144;-70
2023/06/30 15:03:25;;;;;;;26.45;18.60;;;22.90;99.90;;;;;;5016769;28;20562;-69
2023/06/30 15:05:50;;;;;;;25.65;17.45;;;22.90;99.90;;;;;;4999319;28;20117;-70
2023/06/30 15:08:16;;;;;;;;;;;22.90;99.90;;;;;;5017877;28;20478;-70
2023/06/30 15:10:41;;;;;;;20.98;15.52;;;22.80;99.90;;;;;;5017389;28;19960;-70
2023/06/30 15:13:07;;;;;;;21.02;15.05;;;22.70;99.90;;;;;;4999274;28;20026;-70
2023/06/30 15:15:32;;;;;;;20.20;15.05;;;22.70;99.90;;;;;;5017023;28;20049;-69
2023/06/30 15:17:58;;;;;;;22.52;15.23;;;22.70;99.90;;;;;;5016641;28;20030;-69
2023/06/30 15:20:23;;;;;;;20.08;14.00;;;22.60;99.90;;;;;;5017446;28;20033;-70
2023/06/30 15:22:49;;;;;;;23.27;17.17;;;22.70;99.90;;;;;;4999810;28;20022;-68
2023/06/30 15:25:22;;;;;;;;;;;22.90;99.90;;;;;;4999068;28;20053;-67
2023/06/30 15:27:48;;;;;;;23.27;15.70;;;23.00;99.90;;;;;;5017044;28;19988;-67
2023/06/30 15:30:13;;;;;;;22.55;15.98;;;23.20;99.90;;;;;;5016888;28;20069;-67
2023/06/30 15:32:39;;;;;;;;;;;23.30;99.90;;;;;;5016817;28;20057;-67
2023/06/30 15:35:05;;;;;;;22.13;16.77;;;23.30;99.90;;;;;;5017693;28;19905;-67
2023/06/30 15:37:31;;;;;;;;;;;23.40;99.90;;;;;;5018963;28;20030;-70
2023/06/30 15:39:56;;;;;;;25.77;17.48;;;23.30;99.90;;;;;;5000934;28;19905;-68
2023/06/30 15:42:22;;;;;;;21.35;16.30;;;23.00;99.90;;;;;;5025052;28;20030;-67
2023/06/30 15:44:47;;;;;;;;;;;22.90;99.90;;;;;;5019913;28;20037;-66
2023/06/30 15:47:13;;;;;;;26.50;16.98;;;22.90;99.90;;;;;;5019504;28;19996;-67
2023/06/30 15:49:38;;;;;;;24.50;17.73;;;22.80;99.90;;;;;;5019389;28;20034;-65
2023/06/30 15:52:04;;;;;;;;;;;22.80;99.90;;;;;;5020373;28;20025;-69
2023/06/30 15:54:29;;;;;;;24.08;16.65;;;22.70;99.90;;;;;;5005561;28;19912;-66
2023/06/30 15:56:55;;;;;;;;;;;22.60;99.90;;;;;;4997035;28;20084;-64
2023/06/30 15:59:20;;;;;;;23.35;16.58;;;22.60;99.90;;;;;;4995782;28;20004;-66
2023/06/30 16:01:46;;;;;;;25.85;18.25;;;22.50;99.90;;;;;;4996499;28;20027;-66
2023/06/30 16:04:11;;;;;;;;;;;22.50;99.90;;;;;;4997180;28;20026;-67
2023/06/30 16:06:37;;;;;;;23.58;16.17;;;22.30;99.90;;;;;;5008490;28;19905;-67
2023/06/30 16:09:02;;;;;;;22.73;16.58;;;22.30;99.90;;;;;;4996409;28;20040;-66
2023/06/30 16:11:28;;;;;;;;;;;22.30;99.90;;;;;;4997939;28;20494;-66
2023/06/30 16:13:53;;;;;;;23.77;17.83;;;22.50;99.90;;;;;;4995667;28;19913;-67
2023/06/30 16:16:19;;;;;;;24.40;17.48;;;22.70;99.90;;;;;;4994657;28;20031;-68
2023/06/30 16:18:44;;;;;;;24.13;18.67;;;22.80;99.90;;;;;;4999568;28;20034;-69
2023/06/30 16:21:10;;;;;;;23.15;16.88;;;22.70;99.90;;;;;;5015217;28;20022;-70
2023/06/30 16:23:36;;;;;;;23.33;16.25;;;22.80;99.90;;;;;;5000802;28;20034;-71
2023/06/30 16:26:01;;;;;;;29.15;18.50;;;22.90;99.90;;;;;;5002646;28;20038;-71
2023/06/30 16:28:27;;;;;;;25.05;17.80;;;22.70;99.90;;;;;;4995377;28;20030;-71
2023/06/30 16:30:53;;;;;;;29.02;18.20;;;22.70;99.90;;;;;;4979737;28;20506;-72
2023/06/30 16:33:19;;;;;;;;;;;22.50;99.90;;;;;;4998792;28;20092;-72
2023/06/30 16:35:44;;;;;;;26.42;18.23;;;22.50;99.90;;;;;;4998870;28;19905;-73
2023/06/30 16:38:10;;;;;;;26.35;18.67;;;22.40;99.90;;;;;;5016632;28;20030;-72
2023/06/30 16:40:35;;;;;;;23.42;17.80;;;22.50;99.90;;;;;;4999012;28;20021;-72
2023/06/30 16:43:01;;;;;;;;;;;22.30;99.90;;;;;;5017160;28;20434;-73